createdAt,value
2023-01-23T00:00:07.519Z,1.83
2023-01-23T00:01:07.488Z,1.83
2023-01-23T00:02:07.559Z,1.79
2023-01-23T00:03:07.503Z,1.77
2023-01-23T00:04:07.483Z,1.77
2023-01-23T00:05:07.444Z,1.76
2023-01-23T00:06:07.432Z,1.76
2023-01-23T00:07:07.419Z,1.76
2023-01-23T00:08:07.397Z,1.79
2023-01-23T00:09:07.401Z,1.81
2023-01-23T00:10:07.398Z,1.81
2023-01-23T00:11:07.396Z,1.81
2023-01-23T00:12:07.361Z,1.80
2023-01-23T00:13:07.346Z,1.83
2023-01-23T00:14:07.338Z,1.84
2023-01-23T00:15:07.329Z,1.86
2023-01-23T00:16:07.397Z,1.84
2023-01-23T00:17:07.327Z,1.83
2023-01-23T00:18:07.299Z,1.84
2023-01-23T00:19:07.286Z,1.83
2023-01-23T00:20:07.264Z,1.84
2023-01-23T00:21:07.251Z,1.80
2023-01-23T00:22:07.243Z,1.79
2023-01-23T00:23:07.235Z,1.72
2023-01-23T00:24:07.236Z,1.69
2023-01-23T00:25:07.227Z,1.68
2023-01-23T00:26:07.205Z,1.72
2023-01-23T00:27:07.191Z,1.72
2023-01-23T00:28:07.177Z,1.76
2023-01-23T00:29:07.199Z,1.80
2023-01-23T00:30:07.167Z,1.81
2023-01-23T00:31:07.252Z,1.80
2023-01-23T00:32:07.158Z,1.81
2023-01-23T00:33:07.117Z,1.83
2023-01-23T00:34:07.186Z,1.81
2023-01-23T00:35:07.124Z,1.80
2023-01-23T00:36:07.090Z,1.80
2023-01-23T00:37:07.080Z,1.77
2023-01-23T00:38:07.145Z,1.76
2023-01-23T00:39:07.053Z,1.73
2023-01-23T00:40:07.071Z,1.72
2023-01-23T00:41:07.037Z,1.73
2023-01-23T00:42:07.033Z,1.76
2023-01-23T00:43:07.034Z,1.80
2023-01-23T00:44:07.012Z,1.79
2023-01-23T00:45:07.005Z,1.80
2023-01-23T00:46:07.041Z,1.80
2023-01-23T00:47:06.959Z,1.81
2023-01-23T00:48:06.948Z,1.77
2023-01-23T00:49:06.973Z,1.73
2023-01-23T00:50:06.944Z,1.76
2023-01-23T00:51:06.983Z,1.76
2023-01-23T00:52:06.932Z,1.76
2023-01-23T00:53:06.909Z,1.77
2023-01-23T00:54:06.905Z,1.73
2023-01-23T00:55:06.897Z,1.72
2023-01-23T00:56:06.881Z,1.73
2023-01-23T00:57:06.855Z,1.79
2023-01-23T00:58:06.872Z,1.81
2023-01-23T00:59:06.840Z,1.81
2023-01-23T01:00:06.841Z,1.83
2023-01-23T01:01:06.832Z,1.80
2023-01-23T01:02:06.825Z,1.73
2023-01-23T01:03:06.870Z,1.68
2023-01-23T01:04:06.814Z,1.72
2023-01-23T01:05:06.789Z,1.76
2023-01-23T01:06:06.767Z,1.72
2023-01-23T01:07:06.755Z,1.70
2023-01-23T01:08:06.731Z,1.73
2023-01-23T01:09:06.737Z,1.70
2023-01-23T01:10:06.769Z,1.68
2023-01-23T01:11:06.707Z,1.68
2023-01-23T01:12:06.733Z,1.68
2023-01-23T01:13:06.680Z,1.70
2023-01-23T01:14:06.685Z,1.72
2023-01-23T01:15:06.662Z,1.70
2023-01-23T01:16:06.713Z,1.72
2023-01-23T01:17:06.649Z,1.73
2023-01-23T01:18:06.630Z,1.73
2023-01-23T01:19:06.687Z,1.73
2023-01-23T01:20:06.601Z,1.76
2023-01-23T01:21:06.630Z,1.73
2023-01-23T01:22:06.613Z,1.70
2023-01-23T01:23:06.574Z,1.70
2023-01-23T01:24:06.571Z,1.70
2023-01-23T01:25:06.557Z,1.68
2023-01-23T01:26:06.543Z,1.68
2023-01-23T01:27:06.525Z,1.66
2023-01-23T01:28:06.545Z,1.68
2023-01-23T01:29:06.536Z,1.68
2023-01-23T01:30:06.496Z,1.72
2023-01-23T01:31:06.609Z,1.72
2023-01-23T01:32:06.482Z,1.76
2023-01-23T01:33:06.463Z,1.70
2023-01-23T01:34:06.474Z,1.70
2023-01-23T01:35:06.461Z,1.72
2023-01-23T01:36:06.430Z,1.73
2023-01-23T01:37:06.446Z,1.73
2023-01-23T01:38:06.398Z,1.72
2023-01-23T01:39:06.472Z,1.70
2023-01-23T01:40:06.423Z,1.72
2023-01-23T01:41:06.373Z,1.68
2023-01-23T01:42:06.382Z,1.68
2023-01-23T01:43:06.363Z,1.69
2023-01-23T01:44:06.338Z,1.72
2023-01-23T01:45:06.356Z,1.73
2023-01-23T01:46:06.328Z,1.73
2023-01-23T01:47:06.313Z,1.73
2023-01-23T01:48:06.305Z,1.72
2023-01-23T01:49:06.283Z,1.76
2023-01-23T01:50:06.269Z,1.76
2023-01-23T01:51:06.297Z,1.79
2023-01-23T01:52:06.244Z,1.77
2023-01-23T01:53:06.246Z,1.76
2023-01-23T01:54:06.231Z,1.73
2023-01-23T01:55:06.221Z,1.72
2023-01-23T01:56:06.224Z,1.73
2023-01-23T01:57:06.207Z,1.72
2023-01-23T01:58:06.178Z,1.70
2023-01-23T01:59:06.181Z,1.72
2023-01-23T02:00:06.168Z,1.73
2023-01-23T02:01:06.273Z,1.73
2023-01-23T02:02:06.190Z,1.70
2023-01-23T02:03:06.142Z,1.72
2023-01-23T02:04:06.120Z,1.72
2023-01-23T02:05:06.123Z,1.72
2023-01-23T02:06:06.093Z,1.70
2023-01-23T02:07:06.102Z,1.72
2023-01-23T02:08:06.089Z,1.72
2023-01-23T02:09:06.067Z,1.73
2023-01-23T02:10:06.048Z,1.72
2023-01-23T02:11:06.064Z,1.72
2023-01-23T02:12:06.035Z,1.76
2023-01-23T02:13:06.024Z,1.70
2023-01-23T02:14:06.023Z,1.66
2023-01-23T02:15:06.005Z,1.68
2023-01-23T02:16:06.074Z,1.66
2023-01-23T02:17:05.983Z,1.65
2023-01-23T02:18:05.976Z,1.65
2023-01-23T02:19:05.959Z,1.63
2023-01-23T02:20:05.961Z,1.65
2023-01-23T02:21:05.931Z,1.65
2023-01-23T02:22:05.916Z,1.69
2023-01-23T02:23:05.910Z,1.66
2023-01-23T02:24:05.903Z,1.66
2023-01-23T02:25:05.940Z,1.68
2023-01-23T02:26:05.899Z,1.68
2023-01-23T02:27:05.896Z,1.68
2023-01-23T02:28:05.846Z,1.73
2023-01-23T02:29:05.842Z,1.76
2023-01-23T02:30:05.840Z,1.77
2023-01-23T02:31:06.046Z,1.76
2023-01-23T02:32:05.865Z,1.76
2023-01-23T02:33:05.795Z,1.76
2023-01-23T02:34:05.811Z,1.73
2023-01-23T02:35:05.786Z,1.70
2023-01-23T02:36:05.763Z,1.69
2023-01-23T02:37:05.791Z,1.69
2023-01-23T02:38:05.740Z,1.68
2023-01-23T02:39:05.742Z,1.69
2023-01-23T02:40:05.720Z,1.68
2023-01-23T02:41:05.726Z,1.66
2023-01-23T02:42:05.759Z,1.63
2023-01-23T02:43:05.697Z,1.60
2023-01-23T02:44:05.685Z,1.62
2023-01-23T02:45:05.662Z,1.62
2023-01-23T02:46:05.755Z,1.60
2023-01-23T02:47:05.645Z,1.59
2023-01-23T02:48:05.669Z,1.58
2023-01-23T02:49:05.643Z,1.54
2023-01-23T02:50:05.600Z,1.55
2023-01-23T02:51:05.668Z,1.51
2023-01-23T02:52:05.614Z,1.50
2023-01-23T02:53:05.586Z,1.48
2023-01-23T02:54:05.589Z,1.47
2023-01-23T02:55:05.565Z,1.44
2023-01-23T02:56:05.539Z,1.44
2023-01-23T02:57:05.556Z,1.47
2023-01-23T02:58:05.520Z,1.47
2023-01-23T02:59:05.511Z,1.44
2023-01-23T03:00:05.541Z,1.45
2023-01-23T03:01:05.543Z,1.42
2023-01-23T03:02:05.588Z,1.41
2023-01-23T03:03:05.487Z,1.40
2023-01-23T03:04:05.459Z,1.37
2023-01-23T03:05:05.466Z,1.40
2023-01-23T03:06:05.443Z,1.42
2023-01-23T03:07:05.437Z,1.42
2023-01-23T03:08:05.409Z,1.45
2023-01-23T03:09:05.400Z,1.45
2023-01-23T03:10:05.391Z,1.42
2023-01-23T03:11:05.391Z,1.47
2023-01-23T03:12:05.378Z,1.45
2023-01-23T03:13:05.360Z,1.42
2023-01-23T03:14:05.338Z,1.45
2023-01-23T03:15:05.405Z,1.45
2023-01-23T03:16:05.372Z,1.45
2023-01-23T03:17:05.317Z,1.45
2023-01-23T03:18:05.314Z,1.47
2023-01-23T03:19:05.347Z,1.48
2023-01-23T03:20:05.337Z,1.50
2023-01-23T03:21:05.279Z,1.50
2023-01-23T03:22:05.261Z,1.48
2023-01-23T03:23:05.272Z,1.51
2023-01-23T03:24:05.247Z,1.54
2023-01-23T03:25:05.255Z,1.54
2023-01-23T03:26:05.216Z,1.55
2023-01-23T03:27:05.272Z,1.58
2023-01-23T03:28:05.215Z,1.55
2023-01-23T03:29:05.224Z,1.55
2023-01-23T03:30:05.207Z,1.54
2023-01-23T03:31:05.221Z,1.55
2023-01-23T03:32:05.161Z,1.58
2023-01-23T03:33:05.133Z,1.54
2023-01-23T03:34:05.142Z,1.52
2023-01-23T03:35:05.152Z,1.55
2023-01-23T03:36:05.219Z,1.58
2023-01-23T03:37:05.115Z,1.55
2023-01-23T03:38:05.076Z,1.55
2023-01-23T03:39:05.076Z,1.55
2023-01-23T03:40:05.077Z,1.55
2023-01-23T03:41:05.077Z,1.58
2023-01-23T03:42:05.043Z,1.59
2023-01-23T03:43:05.024Z,1.59
2023-01-23T03:44:05.028Z,1.58
2023-01-23T03:45:05.006Z,1.59
2023-01-23T03:46:05.090Z,1.60
2023-01-23T03:47:05.026Z,1.62
2023-01-23T03:48:04.973Z,1.60
2023-01-23T03:49:04.978Z,1.58
2023-01-23T03:50:04.950Z,1.58
2023-01-23T03:51:04.986Z,1.54
2023-01-23T03:52:04.945Z,1.51
2023-01-23T03:53:04.933Z,1.50
2023-01-23T03:54:04.894Z,1.54
2023-01-23T03:55:04.898Z,1.50
2023-01-23T03:56:04.876Z,1.50
2023-01-23T03:57:04.900Z,1.51
2023-01-23T03:58:04.857Z,1.51
2023-01-23T03:59:04.851Z,1.54
2023-01-23T04:00:04.840Z,1.54
2023-01-23T04:01:04.844Z,1.52
2023-01-23T04:02:04.818Z,1.54
2023-01-23T04:03:04.922Z,1.55
2023-01-23T04:04:04.819Z,1.55
2023-01-23T04:05:04.805Z,1.54
2023-01-23T04:06:04.806Z,1.52
2023-01-23T04:07:04.764Z,1.54
2023-01-23T04:08:04.813Z,1.58
2023-01-23T04:09:04.750Z,1.59
2023-01-23T04:10:04.732Z,1.55
2023-01-23T04:11:04.713Z,1.58
2023-01-23T04:12:04.709Z,1.55
2023-01-23T04:13:04.703Z,1.58
2023-01-23T04:14:04.682Z,1.59
2023-01-23T04:15:04.671Z,1.62
2023-01-23T04:16:04.656Z,1.60
2023-01-23T04:17:04.652Z,1.60
2023-01-23T04:18:04.648Z,1.59
2023-01-23T04:19:04.624Z,1.59
2023-01-23T04:20:04.649Z,1.60
2023-01-23T04:21:04.601Z,1.60
2023-01-23T04:22:04.608Z,1.62
2023-01-23T04:23:04.585Z,1.60
2023-01-23T04:24:04.579Z,1.62
2023-01-23T04:25:04.607Z,1.62
2023-01-23T04:26:04.569Z,1.58
2023-01-23T04:27:04.548Z,1.55
2023-01-23T04:28:04.548Z,1.55
2023-01-23T04:29:04.533Z,1.55
2023-01-23T04:30:04.535Z,1.54
2023-01-23T04:31:04.635Z,1.55
2023-01-23T04:32:04.492Z,1.55
2023-01-23T04:33:04.480Z,1.58
2023-01-23T04:34:04.483Z,1.54
2023-01-23T04:35:04.483Z,1.55
2023-01-23T04:36:04.470Z,1.55
2023-01-23T04:37:04.427Z,1.54
2023-01-23T04:38:04.462Z,1.55
2023-01-23T04:39:04.443Z,1.54
2023-01-23T04:40:04.394Z,1.54
2023-01-23T04:41:04.389Z,1.54
2023-01-23T04:42:04.408Z,1.52
2023-01-23T04:43:04.356Z,1.54
2023-01-23T04:44:04.372Z,1.52
2023-01-23T04:45:04.374Z,1.54
2023-01-23T04:46:04.451Z,1.54
2023-01-23T04:47:04.315Z,1.54
2023-01-23T04:48:04.310Z,1.52
2023-01-23T04:49:04.379Z,1.55
2023-01-23T04:50:04.297Z,1.55
2023-01-23T04:51:04.364Z,1.59
2023-01-23T04:52:04.268Z,1.60
2023-01-23T04:53:04.260Z,1.59
2023-01-23T04:54:04.255Z,1.60
2023-01-23T04:55:04.261Z,1.62
2023-01-23T04:56:04.247Z,1.63
2023-01-23T04:57:04.239Z,1.65
2023-01-23T04:58:04.217Z,1.63
2023-01-23T04:59:04.187Z,1.63
2023-01-23T05:00:04.182Z,1.60
2023-01-23T05:01:04.260Z,1.62
2023-01-23T05:02:04.274Z,1.62
2023-01-23T05:03:04.151Z,1.62
2023-01-23T05:04:04.137Z,1.62
2023-01-23T05:05:04.117Z,1.60
2023-01-23T05:06:04.116Z,1.60
2023-01-23T05:07:04.129Z,1.62
2023-01-23T05:08:04.126Z,1.60
2023-01-23T05:09:04.082Z,1.62
2023-01-23T05:10:04.081Z,1.62
2023-01-23T05:11:04.049Z,1.62
2023-01-23T05:12:04.104Z,1.62
2023-01-23T05:13:04.041Z,1.59
2023-01-23T05:14:04.036Z,1.58
2023-01-23T05:15:04.012Z,1.60
2023-01-23T05:16:04.028Z,1.58
2023-01-23T05:17:04.012Z,1.54
2023-01-23T05:18:04.010Z,1.54
2023-01-23T05:19:03.958Z,1.52
2023-01-23T05:20:03.956Z,1.52
2023-01-23T05:21:04.003Z,1.50
2023-01-23T05:22:03.963Z,1.48
2023-01-23T05:23:03.937Z,1.44
2023-01-23T05:24:03.920Z,1.41
2023-01-23T05:25:03.903Z,1.37
2023-01-23T05:26:03.892Z,1.34
2023-01-23T05:27:03.894Z,1.34
2023-01-23T05:28:03.871Z,1.30
2023-01-23T05:29:03.882Z,1.29
2023-01-23T05:30:03.891Z,1.26
2023-01-23T05:31:04.011Z,1.23
2023-01-23T05:32:03.830Z,1.22
2023-01-23T05:33:03.856Z,1.16
2023-01-23T05:34:03.817Z,1.15
2023-01-23T05:35:03.788Z,1.14
2023-01-23T05:36:03.788Z,1.12
2023-01-23T05:37:03.775Z,1.11
2023-01-23T05:38:03.757Z,1.09
2023-01-23T05:39:03.774Z,1.09
2023-01-23T05:40:03.733Z,1.08
2023-01-23T05:41:03.731Z,1.08
2023-01-23T05:42:03.720Z,1.08
2023-01-23T05:43:03.712Z,1.09
2023-01-23T05:44:03.692Z,1.08
2023-01-23T05:45:03.733Z,1.08
2023-01-23T05:46:03.812Z,1.08
2023-01-23T05:47:03.663Z,1.09
2023-01-23T05:48:03.651Z,1.12
2023-01-23T05:49:03.644Z,1.15
2023-01-23T05:50:03.635Z,1.18
2023-01-23T05:51:03.677Z,1.22
2023-01-23T05:52:03.632Z,1.23
2023-01-23T05:53:03.586Z,1.26
2023-01-23T05:54:03.614Z,1.27
2023-01-23T05:55:03.574Z,1.27
2023-01-23T05:56:03.578Z,1.30
2023-01-23T05:57:03.560Z,1.30
2023-01-23T05:58:03.567Z,1.32
2023-01-23T05:59:03.531Z,1.33
2023-01-23T06:00:03.518Z,1.33
2023-01-23T06:01:03.505Z,1.36
2023-01-23T06:02:03.499Z,1.37
2023-01-23T06:03:03.504Z,1.34
2023-01-23T06:04:03.518Z,1.36
2023-01-23T06:05:03.470Z,1.40
2023-01-23T06:06:03.486Z,1.40
2023-01-23T06:07:03.474Z,1.41
2023-01-23T06:08:03.463Z,1.44
2023-01-23T06:09:03.450Z,1.44
2023-01-23T06:10:03.423Z,1.44
2023-01-23T06:11:03.448Z,1.45
2023-01-23T06:12:03.392Z,1.44
2023-01-23T06:13:03.387Z,1.42
2023-01-23T06:14:03.373Z,1.45
2023-01-23T06:15:03.373Z,1.47
2023-01-23T06:16:03.435Z,1.44
2023-01-23T06:17:03.332Z,1.42
2023-01-23T06:18:03.427Z,1.44
2023-01-23T06:19:03.344Z,1.45
2023-01-23T06:20:03.321Z,1.48
2023-01-23T06:21:03.300Z,1.50
2023-01-23T06:22:03.278Z,1.51
2023-01-23T06:23:03.271Z,1.54
2023-01-23T06:24:03.263Z,1.50
2023-01-23T06:25:03.242Z,1.51
2023-01-23T06:26:03.247Z,1.48
2023-01-23T06:27:03.249Z,1.48
2023-01-23T06:28:03.210Z,1.52
2023-01-23T06:29:03.260Z,1.55
2023-01-23T06:30:03.196Z,1.59
2023-01-23T06:31:03.266Z,1.59
2023-01-23T06:32:03.197Z,1.59
2023-01-23T06:33:03.173Z,1.59
2023-01-23T06:34:03.141Z,1.60
2023-01-23T06:35:03.162Z,1.60
2023-01-23T06:36:03.134Z,1.60
2023-01-23T06:37:03.107Z,1.59
2023-01-23T06:38:03.122Z,1.58
2023-01-23T06:39:03.102Z,1.58
2023-01-23T06:40:03.073Z,1.58
2023-01-23T06:41:03.100Z,1.58
2023-01-23T06:42:03.123Z,1.58
2023-01-23T06:43:03.098Z,1.59
2023-01-23T06:44:03.046Z,1.59
2023-01-23T06:45:03.020Z,1.59
2023-01-23T06:46:03.017Z,1.59
2023-01-23T06:47:03.011Z,1.58
2023-01-23T06:48:02.994Z,1.58
2023-01-23T06:49:05.922Z,1.55
2023-01-23T06:50:02.976Z,1.55
2023-01-23T06:51:03.029Z,1.58
2023-01-23T06:52:02.982Z,1.59
2023-01-23T06:53:02.958Z,1.62
2023-01-23T06:54:02.927Z,1.65
2023-01-23T06:55:02.912Z,1.68
2023-01-23T06:56:02.930Z,1.69
2023-01-23T06:57:02.886Z,1.69
2023-01-23T06:58:02.898Z,1.68
2023-01-23T06:59:02.871Z,1.68
2023-01-23T07:00:02.883Z,1.69
2023-01-23T07:01:02.845Z,1.68
2023-01-23T07:02:02.868Z,1.66
2023-01-23T07:03:02.853Z,1.68
2023-01-23T07:04:02.828Z,1.65
2023-01-23T07:05:02.831Z,1.62
2023-01-23T07:06:02.813Z,1.62
2023-01-23T07:07:02.788Z,1.63
2023-01-23T07:08:04.868Z,1.60
2023-01-23T07:09:02.767Z,1.62
2023-01-23T07:10:02.757Z,1.60
2023-01-23T07:11:02.765Z,1.63
2023-01-23T07:12:02.726Z,1.62
2023-01-23T07:13:02.714Z,1.63
2023-01-23T07:14:02.718Z,1.63
2023-01-23T07:15:02.693Z,1.62
2023-01-23T07:16:02.808Z,1.60
2023-01-23T07:17:02.688Z,1.62
2023-01-23T07:18:02.676Z,1.62
2023-01-23T07:19:02.677Z,1.60
2023-01-23T07:20:02.630Z,1.60
2023-01-23T07:21:02.668Z,1.60
2023-01-23T07:22:02.629Z,1.62
2023-01-23T07:23:04.710Z,1.63
2023-01-23T07:24:02.643Z,1.63
2023-01-23T07:25:02.585Z,1.65
2023-01-23T07:26:02.568Z,1.62
2023-01-23T07:27:02.563Z,1.62
2023-01-23T07:28:02.583Z,1.62
2023-01-23T07:29:02.687Z,1.60
2023-01-23T07:30:02.561Z,1.58
2023-01-23T07:31:02.627Z,1.54
2023-01-23T07:32:02.506Z,1.59
2023-01-23T07:33:02.542Z,1.58
2023-01-23T07:34:02.505Z,1.62
2023-01-23T07:35:02.478Z,1.60
2023-01-23T07:36:02.475Z,1.60
2023-01-23T07:37:02.469Z,1.63
2023-01-23T07:38:02.431Z,1.62
2023-01-23T07:39:02.464Z,1.59
2023-01-23T07:40:02.448Z,1.60
2023-01-23T07:41:02.398Z,1.59
2023-01-23T07:42:02.432Z,1.63
2023-01-23T07:43:02.403Z,1.63
2023-01-23T07:44:02.399Z,1.62
2023-01-23T07:45:02.382Z,1.65
2023-01-23T07:46:02.373Z,1.62
2023-01-23T07:47:02.380Z,1.66
2023-01-23T07:48:02.348Z,1.65
2023-01-23T07:49:02.371Z,1.68
2023-01-23T07:50:02.391Z,1.68
2023-01-23T07:51:02.368Z,1.69
2023-01-23T07:52:02.344Z,1.76
2023-01-23T07:53:02.297Z,1.77
2023-01-23T07:54:02.279Z,1.79
2023-01-23T07:55:02.256Z,1.81
2023-01-23T07:56:02.256Z,1.77
2023-01-23T07:57:02.260Z,1.79
2023-01-23T07:58:02.237Z,1.80
2023-01-23T07:59:02.252Z,1.79
2023-01-23T08:00:02.210Z,1.80
2023-01-23T08:01:02.278Z,1.79
2023-01-23T08:02:02.209Z,1.80
2023-01-23T08:03:02.194Z,1.79
2023-01-23T08:04:02.267Z,1.81
2023-01-23T08:05:02.165Z,1.80
2023-01-23T08:06:02.160Z,1.81
2023-01-23T08:07:02.118Z,1.81
2023-01-23T08:08:13.165Z,1.83
2023-01-23T08:09:02.096Z,1.83
2023-01-23T08:10:02.107Z,1.84
2023-01-23T08:11:02.078Z,1.87
2023-01-23T08:12:02.099Z,1.84
2023-01-23T08:13:02.069Z,1.83
2023-01-23T08:14:02.110Z,1.81
2023-01-23T08:15:02.062Z,1.81
2023-01-23T08:16:02.117Z,1.81
2023-01-23T08:17:02.039Z,1.81
2023-01-23T08:18:02.038Z,1.83
2023-01-23T08:19:02.015Z,1.86
2023-01-23T08:20:01.992Z,1.88
2023-01-23T08:21:01.958Z,1.90
2023-01-23T08:22:01.948Z,1.90
2023-01-23T08:23:01.942Z,1.88
2023-01-23T08:24:01.938Z,1.84
2023-01-23T08:25:01.943Z,1.84
2023-01-23T08:26:01.945Z,1.87
2023-01-23T08:27:01.928Z,1.90
2023-01-23T08:28:01.914Z,1.95
2023-01-23T08:29:01.937Z,1.95
2023-01-23T08:30:01.964Z,2.00
2023-01-23T08:31:01.968Z,2.00
2023-01-23T08:32:01.949Z,2.03
2023-01-23T08:33:01.919Z,2.03
2023-01-23T08:34:01.833Z,2.03
2023-01-23T08:35:01.836Z,2.05
2023-01-23T08:36:01.808Z,2.06
2023-01-23T08:37:01.827Z,2.06
2023-01-23T08:38:01.804Z,2.06
2023-01-23T08:39:01.801Z,2.07
2023-01-23T08:40:01.832Z,2.10
2023-01-23T08:41:01.782Z,2.06
2023-01-23T08:42:01.754Z,2.05
2023-01-23T08:43:01.729Z,2.03
2023-01-23T08:44:01.878Z,2.05
2023-01-23T08:45:01.733Z,2.10
2023-01-23T08:46:01.762Z,2.10
2023-01-23T08:47:01.679Z,2.12
2023-01-23T08:48:01.695Z,2.12
2023-01-23T08:49:01.661Z,2.12
2023-01-23T08:50:01.747Z,2.07
2023-01-23T08:51:01.875Z,2.03
2023-01-23T08:52:01.702Z,1.99
2023-01-23T08:53:01.623Z,1.95
2023-01-23T08:54:01.613Z,1.95
2023-01-23T08:55:01.617Z,1.99
2023-01-23T08:56:01.583Z,2.00
2023-01-23T08:57:01.621Z,2.03
2023-01-23T08:58:01.586Z,2.05
2023-01-23T08:59:01.601Z,2.09
2023-01-23T09:00:01.549Z,2.12
2023-01-23T09:01:01.662Z,2.17
2023-01-23T09:02:01.648Z,2.20
2023-01-23T09:03:01.502Z,2.24
2023-01-23T09:04:01.565Z,2.21
2023-01-23T09:05:01.482Z,2.20
2023-01-23T09:06:01.476Z,2.20
2023-01-23T09:07:01.472Z,2.18
2023-01-23T09:08:04.153Z,2.18
2023-01-23T09:09:01.470Z,2.20
2023-01-23T09:10:01.492Z,2.21
2023-01-23T09:11:01.409Z,2.16
2023-01-23T09:12:01.418Z,2.12
2023-01-23T09:13:01.386Z,2.14
2023-01-23T09:14:01.425Z,2.17
2023-01-23T09:15:01.373Z,2.20
2023-01-23T09:16:01.351Z,2.20
2023-01-23T09:17:01.371Z,2.21
2023-01-23T09:18:01.333Z,2.20
2023-01-23T09:19:01.344Z,2.21
2023-01-23T09:20:01.368Z,2.16
2023-01-23T09:21:01.309Z,2.20
2023-01-23T09:22:01.313Z,2.20
2023-01-23T09:23:01.299Z,2.23
2023-01-23T09:24:01.283Z,2.25
2023-01-23T09:25:01.265Z,2.31
2023-01-23T09:26:01.288Z,2.36
2023-01-23T09:27:01.251Z,2.42
2023-01-23T09:28:01.230Z,2.48
2023-01-23T09:29:01.221Z,2.53
2023-01-23T09:30:01.229Z,2.53
2023-01-23T09:31:01.266Z,2.53
2023-01-23T09:32:01.232Z,2.49
2023-01-23T09:33:01.168Z,2.52
2023-01-23T09:34:01.179Z,2.54
2023-01-23T09:35:01.159Z,2.49
2023-01-23T09:36:01.148Z,2.45
2023-01-23T09:37:01.137Z,2.42
2023-01-23T09:38:01.141Z,2.46
2023-01-23T09:39:01.222Z,2.53
2023-01-23T09:40:01.112Z,2.56
2023-01-23T09:41:01.101Z,2.57
2023-01-23T09:42:01.088Z,2.59
2023-01-23T09:43:01.114Z,2.61
2023-01-23T09:44:01.049Z,2.64
2023-01-23T09:45:01.080Z,2.69
2023-01-23T09:46:01.170Z,2.69
2023-01-23T09:47:01.023Z,2.67
2023-01-23T09:48:01.033Z,2.60
2023-01-23T09:49:01.020Z,2.57
2023-01-23T09:50:00.985Z,2.59
2023-01-23T09:51:01.034Z,2.63
2023-01-23T09:52:00.974Z,2.61
2023-01-23T09:53:00.987Z,2.60
2023-01-23T09:54:00.946Z,2.61
2023-01-23T09:55:00.953Z,2.63
2023-01-23T09:56:00.921Z,2.61
2023-01-23T09:57:00.943Z,2.60
2023-01-23T09:58:00.896Z,2.63
2023-01-23T09:59:00.892Z,2.67
2023-01-23T10:00:01.167Z,2.63
2023-01-23T10:01:00.883Z,2.60
2023-01-23T10:02:00.955Z,2.60
2023-01-23T10:03:00.873Z,2.63
2023-01-23T10:04:00.843Z,2.60
2023-01-23T10:05:00.849Z,2.57
2023-01-23T10:06:00.816Z,2.59
2023-01-23T10:07:00.797Z,2.56
2023-01-23T10:08:00.792Z,2.60
2023-01-23T10:09:00.793Z,2.63
2023-01-23T10:10:00.788Z,2.66
2023-01-23T10:11:00.777Z,2.67
2023-01-23T10:12:00.740Z,2.66
2023-01-23T10:13:00.727Z,2.67
2023-01-23T10:14:00.731Z,2.67
2023-01-23T10:15:00.718Z,2.71
2023-01-23T10:16:00.711Z,2.72
2023-01-23T10:17:00.774Z,2.75
2023-01-23T10:18:00.688Z,2.72
2023-01-23T10:19:00.674Z,2.71
2023-01-23T10:20:00.677Z,2.67
2023-01-23T10:21:00.684Z,2.74
2023-01-23T10:22:00.631Z,2.75
2023-01-23T10:23:00.631Z,2.71
2023-01-23T10:24:00.605Z,2.72
2023-01-23T10:25:00.597Z,2.74
2023-01-23T10:26:00.612Z,2.75
2023-01-23T10:27:00.595Z,2.75
2023-01-23T10:28:00.560Z,2.79
2023-01-23T10:29:00.569Z,2.78
2023-01-23T10:30:00.540Z,2.81
2023-01-23T10:31:00.701Z,2.78
2023-01-23T10:32:00.535Z,2.78
2023-01-23T10:33:00.531Z,2.78
2023-01-23T10:34:03.457Z,2.77
2023-01-23T10:35:00.487Z,2.77
2023-01-23T10:36:00.510Z,2.81
2023-01-23T10:37:00.485Z,2.82
2023-01-23T10:38:00.499Z,2.79
2023-01-23T10:39:00.459Z,2.78
2023-01-23T10:40:00.437Z,2.77
2023-01-23T10:41:00.440Z,2.79
2023-01-23T10:42:02.750Z,2.78
2023-01-23T10:43:00.517Z,2.72
2023-01-23T10:44:00.419Z,2.69
2023-01-23T10:45:00.379Z,2.64
2023-01-23T10:46:00.461Z,2.67
2023-01-23T10:47:00.377Z,2.69
2023-01-23T10:48:03.624Z,2.71
2023-01-23T10:49:00.345Z,2.77
2023-01-23T10:50:00.342Z,2.81
2023-01-23T10:51:00.440Z,2.82
2023-01-23T10:52:00.313Z,2.85
2023-01-23T10:53:00.285Z,2.92
2023-01-23T10:54:04.611Z,2.99
2023-01-23T10:55:00.301Z,3.03
2023-01-23T10:56:00.283Z,3.08
2023-01-23T10:57:00.245Z,3.10
2023-01-23T10:58:00.234Z,3.10
2023-01-23T10:59:00.236Z,3.05
2023-01-23T11:00:00.213Z,3.03
2023-01-23T11:01:00.297Z,3.05
2023-01-23T11:02:00.352Z,3.03
2023-01-23T11:03:00.257Z,2.99
2023-01-23T11:04:00.166Z,2.92
2023-01-23T11:05:00.159Z,2.90
2023-01-23T11:06:00.147Z,2.90
2023-01-23T11:07:00.135Z,2.93
2023-01-23T11:08:00.138Z,2.96
2023-01-23T11:09:00.124Z,3.02
2023-01-23T11:10:00.249Z,3.00
2023-01-23T11:11:00.125Z,3.00
2023-01-23T11:12:00.115Z,3.00
2023-01-23T11:13:00.862Z,2.95
2023-01-23T11:14:00.145Z,2.92
2023-01-23T11:15:00.054Z,2.95
2023-01-23T11:16:00.212Z,2.95
2023-01-23T11:17:00.020Z,2.97
2023-01-23T11:18:00.040Z,3.03
2023-01-23T11:19:00.016Z,3.02
2023-01-23T11:19:59.996Z,2.97
2023-01-23T11:21:00.026Z,2.97
2023-01-23T11:21:59.984Z,2.99
2023-01-23T11:22:59.973Z,2.99
2023-01-23T11:23:59.962Z,2.99
2023-01-23T11:24:59.937Z,3.00
2023-01-23T11:25:59.991Z,3.05
2023-01-23T11:26:59.944Z,3.06
2023-01-23T11:27:59.916Z,3.02
2023-01-23T11:28:59.895Z,2.97
2023-01-23T11:29:59.895Z,3.00
2023-01-23T11:31:12.428Z,3.00
2023-01-23T11:31:59.966Z,3.06
2023-01-23T11:32:59.893Z,3.06
2023-01-23T11:34:00.038Z,3.06
2023-01-23T11:34:59.932Z,3.10
2023-01-23T11:35:59.832Z,3.17
2023-01-23T11:36:59.822Z,3.24
2023-01-23T11:37:59.806Z,3.23
2023-01-23T11:39:00.945Z,3.24
2023-01-23T11:39:59.925Z,3.26
2023-01-23T11:40:59.818Z,3.28
2023-01-23T11:41:59.791Z,3.28
2023-01-23T11:42:59.771Z,3.21
2023-01-23T11:43:59.730Z,3.21
2023-01-23T11:44:59.944Z,3.24
2023-01-23T11:45:59.980Z,3.32
2023-01-23T11:46:59.757Z,3.42
2023-01-23T11:47:59.787Z,3.32
2023-01-23T11:48:59.717Z,3.24
2023-01-23T11:49:59.737Z,3.26
2023-01-23T11:50:59.731Z,3.20
2023-01-23T11:51:59.791Z,3.18
2023-01-23T11:52:59.828Z,3.26
2023-01-23T11:53:59.891Z,3.18
2023-01-23T11:54:59.657Z,3.17
2023-01-23T11:55:59.637Z,3.20
2023-01-23T11:56:59.775Z,3.23
2023-01-23T11:57:59.604Z,3.21
2023-01-23T11:58:59.610Z,3.24
2023-01-23T11:59:59.607Z,3.24
2023-01-23T12:00:59.689Z,3.23
2023-01-23T12:02:03.542Z,3.28
2023-01-23T12:02:59.617Z,3.35
2023-01-23T12:03:59.635Z,3.35
2023-01-23T12:04:59.619Z,3.31
2023-01-23T12:18:04.022Z,3.17
2023-01-23T12:18:08.811Z,3.73
2023-01-23T12:19:08.858Z,3.72
2023-01-23T12:20:08.809Z,3.62
2023-01-23T12:21:08.766Z,3.47
2023-01-23T12:22:08.772Z,3.48
2023-01-23T12:23:08.797Z,3.54
2023-01-23T12:24:08.742Z,3.62
2023-01-23T12:25:08.783Z,3.54
2023-01-23T12:26:08.754Z,3.48
2023-01-23T12:27:08.705Z,3.47
2023-01-23T12:28:08.705Z,3.50
2023-01-23T12:29:08.691Z,3.42
2023-01-23T12:30:08.671Z,3.43
2023-01-23T12:31:08.825Z,3.45
2023-01-23T12:32:08.772Z,3.48
2023-01-23T12:33:08.643Z,3.48
2023-01-23T12:34:08.658Z,3.51
2023-01-23T12:35:08.624Z,3.52
2023-01-23T12:36:08.653Z,3.55
2023-01-23T12:37:14.472Z,3.61
2023-01-23T12:38:08.632Z,3.65
2023-01-23T12:39:08.568Z,3.68
2023-01-23T12:40:08.783Z,3.65
2023-01-23T12:41:08.589Z,3.66
2023-01-23T12:42:08.658Z,3.66
2023-01-23T12:43:08.535Z,3.66
2023-01-23T12:44:08.519Z,3.62
2023-01-23T12:45:08.520Z,3.61
2023-01-23T12:46:08.495Z,3.54
2023-01-23T12:47:08.555Z,3.57
2023-01-23T12:48:08.517Z,3.54
2023-01-23T12:49:08.479Z,3.50
2023-01-23T12:50:08.508Z,3.52
2023-01-23T12:51:08.511Z,3.47
2023-01-23T12:52:08.468Z,3.39
2023-01-23T12:53:08.480Z,3.39
2023-01-23T12:54:08.424Z,3.42
2023-01-23T12:55:08.400Z,3.42
2023-01-23T12:56:08.385Z,3.35
2023-01-23T12:57:08.458Z,3.24
2023-01-23T12:58:09.716Z,3.23
2023-01-23T12:59:08.373Z,3.08
2023-01-23T13:00:08.342Z,3.06
2023-01-23T13:01:08.420Z,3.05
2023-01-23T13:02:08.409Z,3.02
2023-01-23T13:03:08.350Z,3.02
2023-01-23T13:04:08.312Z,2.97
2023-01-23T13:05:08.293Z,2.95
2023-01-23T13:06:08.310Z,2.93
2023-01-23T13:07:08.278Z,2.92
2023-01-23T13:08:08.265Z,2.92
2023-01-23T13:09:17.713Z,2.95
2023-01-23T13:10:08.256Z,2.96
2023-01-23T13:11:08.222Z,3.03
2023-01-23T13:12:08.226Z,2.99
2023-01-23T13:13:08.210Z,2.95
2023-01-23T13:14:08.226Z,2.99
2023-01-23T13:15:14.151Z,2.96
2023-01-23T13:16:08.183Z,2.99
2023-01-23T13:17:08.214Z,2.95
2023-01-23T13:18:08.145Z,2.97
2023-01-23T13:19:08.157Z,3.00
2023-01-23T13:20:08.143Z,3.03
2023-01-23T13:21:08.137Z,3.08
2023-01-23T13:22:09.466Z,3.10
2023-01-23T13:23:08.127Z,3.10
2023-01-23T13:24:08.085Z,3.08
2023-01-23T13:25:08.075Z,3.11
2023-01-23T13:26:08.055Z,3.06
2023-01-23T13:27:08.071Z,3.03
2023-01-23T13:28:08.053Z,3.00
2023-01-23T13:29:08.026Z,3.02